Terminal Aerodrome Forecast
Issued by NWS

Home | Current Version | Previous Version | Graphics & Text | Print | Product List | Glossary On
Versions: 1 2 3 4 5 6 7 8 9 10 11 12 13 14 15 16 17 18 19 20 21 22 23 24 25 26 27 28 29 30 31 32
000
FTUS43 KLOT 290904 AAA
TAFORD
TAF AMD
KORD 290904Z 2909/3012 05006KT 3/4SM BR OVC002
      TEMPO 2909/2913 1/2SM FG
     FM291500 07013KT P6SM FEW005 BKN120
     FM292100 07014G22KT P6SM SCT060 BKN100
     FM300100 07010KT P6SM SCT030 OVC060
     FM300900 08016G25KT 4SM -SHRA BKN030 OVC050=

USA.gov is the U.S. government's official web portal to all federal, state and local government web resources and services.